Estació meteorològica de Bellmunt (Osona, Osona)

Consulta les dades en temps real de l'estació meteorològica de Bellmunt





Hora UTC 17:45
Temperatura 6.7 ºC
Humitat 85.0 %
Pressió 1008.7 hPa
Pluja 0.0 mm
Velocitat vent 17.7 km/h
Direcció vent SSW

Dades diàries 2026-05-05



Hora UTC (hivern +1h; estiu +2h)
Temperatura (ºC) Humitat (%) Pressió (hPa) Velocitat vent (km/h) Precipitació (mm)
Hora UTC Aire Humitat Pressió Vel. Dir. Vel. Max Dir. Intent. màx 5 min.
00:05 7.2 89.0 1010.0 24.1 WSW 24.1 0.0
00:10 7.0 89.0 1010.0 24.1 SW 30.6 0.0
00:15 6.8 89.0 1010.0 29.0 WSW 29.0 0.0
00:20 6.7 89.0 1009.8 25.7 WSW 33.8 0.0
00:25 6.8 89.0 1009.8 29.0 SW 33.8 0.0
00:30 6.8 89.0 1009.7 32.2 WSW 33.8 0.0
00:35 6.8 89.0 1009.5 27.4 SW 33.8 0.0
00:40 6.9 88.0 1009.7 29.0 SW 33.8 0.0
00:45 7.3 85.0 1009.6 25.7 WSW 32.2 0.0
00:50 7.6 82.0 1009.6 24.1 WSW 30.6 0.0
00:55 7.5 83.0 1009.6 19.3 WSW 29.0 0.0
01:00 7.4 83.0 1009.6 17.7 SW 25.7 0.0
01:05 7.1 85.0 1009.6 17.7 SW 25.7 0.0
01:10 6.9 86.0 1009.5 16.1 WSW 19.3 0.0
01:15 6.9 86.0 1009.4 19.3 WSW 19.3 0.0
01:20 6.8 86.0 1009.5 17.7 SW 20.9 0.0
01:25 6.6 87.0 1009.5 16.1 WSW 20.9 0.0
01:30 6.7 86.0 1009.4 14.5 WSW 19.3 0.0
01:35 6.7 86.0 1009.5 19.3 WSW 19.3 0.0
01:40 6.6 87.0 1009.6 11.3 SW 19.3 0.0
01:45 6.6 87.0 1009.5 14.5 W 16.1 0.0
01:50 6.7 87.0 1009.6 9.7 SW 16.1 0.0
01:55 6.5 87.0 1009.6 8.0 WSW 11.3 0.0
02:00 6.6 87.0 1009.5 8.0 WSW 12.9 0.0
02:05 6.3 88.0 1009.6 4.8 WSW 12.9 0.0
02:10 6.2 89.0 1009.6 4.8 WSW 11.3 0.0
02:15 6.1 89.0 1009.6 4.8 W 8.0 0.0
02:20 6.1 89.0 1009.7 6.4 SW 11.3 0.0
02:25 6.1 89.0 1009.7 4.8 SSW 12.9 0.0
02:30 5.9 89.0 1009.6 3.2 SW 12.9 0.0
02:35 5.9 90.0 1009.6 6.4 WSW 12.9 0.0
02:40 6.2 89.0 1009.5 9.7 W 12.9 0.0
02:45 6.6 86.0 1009.4 12.9 W 20.9 0.0
02:50 6.7 86.0 1009.4 20.9 W 22.5 0.0
02:55 6.7 85.0 1009.4 11.3 W 22.5 0.0
03:00 6.6 85.0 1009.3 20.9 W 24.1 0.0
03:05 7.1 83.0 1009.2 20.9 W 30.6 0.0
03:10 7.3 81.0 1009.3 24.1 W 30.6 0.0
03:15 7.5 80.0 1009.2 25.7 W 29.0 0.0
03:20 7.4 81.0 1009.2 20.9 WNW 27.4 0.0
03:25 7.6 80.0 1009.2 22.5 W 25.7 0.0
03:30 7.6 79.0 1009.3 17.7 WSW 27.4 0.0
03:35 7.8 78.0 1009.2 22.5 W 27.4 0.0
03:40 7.9 77.0 1009.2 20.9 W 25.7 0.0
03:45 7.7 78.0 1009.2 17.7 W 25.7 0.0
03:50 7.5 79.0 1009.1 20.9 W 22.5 0.0
03:55 7.7 76.0 1009.1 14.5 W 25.7 0.0
04:00 7.7 78.0 1009.1 12.9 W 25.7 0.0
04:05 7.5 79.0 1009.1 14.5 WNW 20.9 0.0
04:10 7.2 81.0 1009.0 12.9 WNW 22.5 0.0
04:15 7.0 81.0 1009.0 20.9 W 24.1 0.0
04:20 6.9 82.0 1009.0 16.1 WNW 24.1 0.0
04:25 6.9 82.0 1009.0 17.7 W 22.5 0.0
04:30 6.9 82.0 1009.0 17.7 W 22.5 0.0
04:35 7.1 81.0 1009.0 17.7 W 25.7 0.0
04:40 7.3 78.0 1009.0 19.3 W 27.4 0.0
04:45 7.6 77.0 1009.0 22.5 W 27.4 0.0
04:50 7.4 78.0 1009.0 22.5 WSW 27.4 0.0
04:55 7.5 78.0 1009.0 24.1 WSW 25.7 0.0
05:00 7.4 77.0 1009.1 19.3 WSW 29.0 0.0
05:05 7.1 79.0 1009.2 24.1 WSW 25.7 0.0
05:10 6.9 80.0 1009.2 19.3 WSW 25.7 0.0
05:15 6.9 80.0 1009.2 22.5 WSW 25.7 0.0
05:20 6.9 80.0 1009.4 20.9 WSW 27.4 0.0
05:25 6.7 81.0 1009.3 25.7 WSW 27.4 0.0
05:30 7.3 78.0 1009.2 19.3 WSW 32.2 0.0
05:35 7.0 80.0 1009.5 8.0 WSW 32.2 0.0
05:40 6.9 80.0 1009.4 24.1 SW 29.0 0.0
05:45 8.0 71.0 1009.4 25.7 WSW 33.8 0.0
05:50 7.7 77.0 1009.6 29.0 WSW 35.4 0.0
05:55 7.8 75.0 1009.7 27.4 SW 35.4 0.0
06:00 8.1 74.0 1009.6 25.7 WSW 35.4 0.0
06:05 7.6 76.0 1009.7 16.1 W 33.8 0.0
06:10 7.6 74.0 1009.7 22.5 WSW 29.0 0.0
06:15 7.7 73.0 1009.7 19.3 WSW 29.0 0.0
06:20 7.9 72.0 1009.6 17.7 WNW 29.0 0.0
06:25 7.2 78.0 1009.7 14.5 WSW 29.0 0.0
06:30 7.0 79.0 1009.8 6.4 W 24.1 0.0
06:35 0.0
06:40 0.0
06:45 0.0
06:50 0.0
06:55 0.0
07:00 0.0
07:05 0.0
07:05 0.0
07:15 0.0
07:20 7.9 76.0 1009.6 11.3 SW 27.4 0.0
07:25 8.3 78.0 1009.6 19.3 WSW 27.4 0.0
07:30 8.1 75.0 1009.6 24.1 WSW 27.4 0.0
07:35 8.3 75.0 1009.7 20.9 WSW 29.0 0.0
07:40 8.5 72.0 1009.6 24.1 WSW 27.4 0.0
07:45 8.9 72.0 1009.6 20.9 W 30.6 0.0
07:50 8.9 70.0 1009.6 25.7 W 30.6 0.0
07:55 9.2 68.0 1009.6 24.1 W 29.0 0.0
08:00 8.9 70.0 1009.6 14.5 W 29.0 0.0
08:05 8.9 69.0 1009.6 20.9 W 25.7 0.0
08:10 9.2 69.0 1009.6 24.1 W 27.4 0.0
08:15 9.3 68.0 1009.7 16.1 W 27.4 0.0
08:20 9.4 68.0 1009.7 19.3 W 24.1 0.0
08:25 9.4 69.0 1009.7 14.5 W 20.9 0.0
08:30 9.4 68.0 1009.8 14.5 W 19.3 0.0
08:35 9.4 67.0 1009.7 17.7 W 19.3 0.0
08:40 9.4 69.0 1009.7 12.9 W 19.3 0.0
08:45 9.4 73.0 1009.7 11.3 W 19.3 0.0
08:50 9.5 68.0 1009.7 6.4 WNW 14.5 0.0
08:55 9.6 72.0 1009.8 6.4 SW 14.5 0.0
09:00 9.6 83.0 1009.9 3.2 SSW 9.7 0.0
09:05 9.0 80.0 1009.9 6.4 W 20.9 0.0
09:10 9.2 76.0 1009.8 12.9 WNW 20.9 0.0
09:15 9.4 73.0 1009.7 17.7 WNW 29.0 0.0
09:20 9.5 75.0 1009.8 19.3 W 29.0 0.0
09:25 9.7 76.0 1010.0 19.3 W 20.9 0.0
09:30 9.8 73.0 1010.0 22.5 W 22.5 0.0
09:35 10.0 78.0 1010.0 6.4 WSW 33.8 0.0
09:40 9.8 75.0 1010.0 6.4 WNW 33.8 0.0
09:45 9.7 77.0 1009.9 14.5 W 27.4 0.0
09:50 9.6 76.0 1009.8 11.3 WNW 20.9 0.0
09:55 9.7 82.0 1010.0 12.9 W 22.5 0.0
10:00 9.7 83.0 1010.0 8.0 SSW 22.5 0.0
10:05 9.7 84.0 1009.9 6.4 W 14.5 0.0
10:10 9.7 78.0 1009.9 1.6 WNW 16.1 0.0
10:15 10.3 80.0 1009.8 3.2 WSW 16.1 0.0
10:20 10.8 83.0 1009.9 3.2 SSW 9.7 0.0
10:25 10.7 85.0 1010.0 3.2 S 12.9 0.0
10:30 9.9 86.0 1010.0 3.2 E 12.9 0.0
10:35 9.8 87.0 1009.8 1.6 SSW 16.1 0.0
10:40 10.5 88.0 1009.9 8.0 SSW 16.1 0.0
10:45 10.8 85.0 1009.9 9.7 S 11.3 0.0
10:50 10.9 84.0 1009.9 4.8 SSW 12.9 0.0
10:55 10.8 84.0 1009.8 8.0 SSW 12.9 0.0
11:00 0.0
11:05 0.0
11:10 0.0
11:15 0.0
11:20 0.0
11:25 0.0
11:30 0.0
11:35 0.0
11:40 0.0
11:45 0.0
11:50 0.0
11:55 0.0
12:00 0.0
12:05 0.0
12:10 0.0
12:15 0.0
12:20 0.0
12:25 0.0
12:30 0.0
12:35 0.0
12:40 0.0
12:45 0.0
12:50 10.4 83.0 1009.1 12.9 S 14.5 0.0
12:55 10.3 81.0 1008.9 11.3 S 19.3 0.0
13:00 10.2 83.0 1009.0 11.3 WSW 17.7 0.0
13:05 10.2 81.0 1008.9 8.0 SSE 17.7 0.0
13:10 10.2 85.0 1008.8 4.8 SE 16.1 0.0
13:15 10.1 85.0 1008.9 1.6 S 14.5 0.0
13:20 10.2 86.0 1008.9 3.2 SSE 22.5 0.0
13:25 10.1 84.0 1009.0 3.2 S 29.0 0.0
13:30 9.7 86.0 1008.8 4.8 NW 29.0 0.0
13:35 9.1 87.0 1009.0 8.0 S 24.1 0.0
13:40 8.9 88.0 1009.0 14.5 S 24.1 0.0
13:45 8.9 90.0 1008.9 27.4 SSE 27.4 0.0
13:50 8.7 90.0 1008.8 6.4 S 32.2 0.0
13:55 8.6 90.0 1008.6 1.6 NW 32.2 0.0
14:00 8.2 90.0 1008.7 0.0 SE 16.1 0.0
14:05 8.2 90.0 1008.3 4.8 SE 11.3 0.0
14:10 9.1 90.0 1008.5 16.1 SSW 20.9 0.0
14:15 9.5 86.0 1008.4 12.9 SSW 20.9 0.0
14:20 9.9 85.0 1008.3 22.5 S 32.2 0.0
14:25 9.8 82.0 1008.2 17.7 S 33.8 0.0
14:30 10.2 82.0 1008.3 17.7 S 33.8 0.0
14:35 10.4 83.0 1008.3 4.8 ESE 24.1 0.0
14:40 10.2 82.0 1008.2 0.0 SE 19.3 0.0
14:45 10.5 80.0 1008.0 19.3 S 25.7 0.0
14:50 10.3 79.0 1008.2 4.8 S 27.4 0.0
14:55 10.3 79.0 1008.0 8.0 S 22.5 0.0
15:00 10.4 78.0 1008.1 17.7 SSW 24.1 0.0
15:05 10.7 79.0 1008.1 16.1 S 30.6 0.0
15:10 10.7 75.0 1008.1 20.9 S 32.2 0.0
15:15 10.9 76.0 1008.0 16.1 S 32.2 0.0
15:20 11.1 74.0 1008.2 8.0 S 25.7 0.0
15:25 10.7 79.0 1008.2 17.7 SSW 29.0 0.0
15:30 10.3 78.0 1008.1 27.4 S 29.0 0.0
15:35 10.4 82.0 1008.3 16.1 SSW 29.0 0.0
15:40 10.2 84.0 1008.3 17.7 SSW 29.0 0.0
15:45 9.9 86.0 1008.2 17.7 S 22.5 0.0
15:50 9.8 86.0 1008.2 0.0 WNW 25.7 0.0
15:55 9.5 86.0 1008.0 3.2 NW 19.3 0.0
16:00 9.3 87.0 1008.1 1.6 W 17.7 0.0
16:05 9.3 87.0 1008.1 8.0 WSW 16.1 0.0
16:10 9.2 87.0 1008.2 1.6 SE 30.6 0.0
16:15 9.1 88.0 1008.1 8.0 S 30.6 0.0
16:20 9.1 88.0 1008.0 35.4 S 37.0 0.0
16:25 8.9 87.0 1007.8 22.5 S 41.8 0.0
16:30 9.1 86.0 1007.8 3.2 ENE 38.6 0.0
16:35 8.9 87.0 1007.8 22.5 SE 38.6 0.0
16:40 8.8 86.0 1007.8 19.3 SSE 40.2 0.0
16:45 8.7 81.0 1007.7 20.9 SSW 49.9 0.0
16:50 8.7 82.0 1007.9 1.6 N 49.9 0.0
16:55 8.6 79.0 1007.7 8.0 SW 37.0 0.0
17:00 8.5 79.0 1007.8 16.1 SSE 35.4 0.0
17:05 8.4 77.0 1007.8 22.5 S 40.2 0.0
17:10 8.2 77.0 1007.8 3.2 NNW 40.2 0.0
17:15 7.9 76.0 1007.7 20.9 SE 40.2 0.0
17:20 7.7 77.0 1007.9 1.6 SE 35.4 0.0
17:25 7.5 79.0 1008.0 6.4 SSW 35.4 0.0
17:30 7.3 80.0 1008.1 19.3 SSE 29.0 0.0
17:35 7.1 81.0 1008.1 4.8 WNW 25.7 0.0
17:40 6.9 83.0 1008.4 1.6 S 27.4 0.0
17:45 6.7 85.0 1008.7 17.7 SSW 30.6 0.0
Màxima 11.1 90.0 1010.0 35.4 S 49.9 0.0
Mínima 5.9 67.0 1007.7
Total 0.0